ESGJ

Jönköping Airport

Jönköping, Sweden
METAR ESGJ 092120Z AUTO 29007KT 9999 NCD M01/M01 Q0989
Observed Flight Rules
Dec-9 @ 21:20 UTC (20 minutes ago) Visual Flight Rules
Wind Visibility Clouds
290° at 7 knots 10,000+ meters
  • Clear skies
Temperatures Readings
Current -1°C / 30°F
Dewpoint -1°C / 30°F
Humidity 100%
Altimeter 29.2" Hg
Pressure 989 hPa
Elevation 232
METAR ESGJ 092120Z AUTO 29007KT 9999 NCD M01/M01 Q0989
Observed Flight Rules
Dec-9 @ 21:20 UTC
(20 minutes ago)
VFR
Wind Visibility
290° at 7 knots 10,000+ meters
Clouds
  • Clear skies
Temperature Dewpoint
-1°C / 30°F -1°C / 30°F
Humidity Altimeter Pressure
100% 29.2" Hg 989 hPa